Primm Springs, Tennessee
Current Conditions -  °F | °C
As of 10:35 AM on Saturday 22 Nov 2014 (Local Time) from KMRC Reporting Station
Scattered Clouds Scattered Clouds  
Wind Chill: 61°   Ceiling: Unl
Heat Index: 61°   Visibility: 10mi
Dew Point: 36°   Wind: 13mph
Humidity: 39%   Direction: 190°S
Pressure: 30.29"   Gusts: NA
Location:  35.82°N, 87.25°W
Report Text: KMRC 221635Z AUTO 19011KT 150V220 10SM SCT095 16/02 A3029 RMK
Loading
Personal Weather Stations






























Interactive Weather Map New forecast layout! Learn more

10-Day Weather Forecast

Advertisements
Track Severe Weather on mobile